Time;durP1;ratioP1;P1;durP2;ratioP2;P2;SDS_P1;SDS_P2;PMS_P1;PMS_P2;Temp;Humidity;BMP_temperature;BMP_pressure;BME280_temperature;BME280_humidity;BME280_pressure;Samples;Min_cycle;Max_cycle;Signal;HPM_P1;HPM_P2
2023/11/15 04:06:44;;;;;;;0.40;0.40;;;10.50;99.90;;;;;;5206220;23;20238;-63
2023/11/15 04:09:10;;;;;;;0.30;0.30;;;10.50;99.90;;;;;;4982320;28;20429;-63
2023/11/15 04:11:37;;;;;;;0.40;0.40;;;10.60;99.90;;;;;;4958426;28;20174;-63
2023/11/15 04:14:03;;;;;;;0.30;0.30;;;10.60;99.90;;;;;;4975400;28;20533;-63
2023/11/15 04:16:29;;;;;;;0.30;0.30;;;10.60;99.90;;;;;;4971878;28;20208;-62
2023/11/15 04:18:56;;;;;;;0.30;0.30;;;10.60;99.90;;;;;;4967696;28;20797;-61
2023/11/15 04:21:22;;;;;;;0.30;0.30;;;10.60;99.90;;;;;;4955602;29;20796;-62
2023/11/15 04:23:48;;;;;;;0.30;0.30;;;10.60;99.90;;;;;;4960581;28;20220;-64
2023/11/15 04:26:13;;;;;;;0.30;0.30;;;10.70;99.90;;;;;;4955945;29;20449;-63
2023/11/15 04:28:39;;;;;;;0.30;0.30;;;10.60;99.90;;;;;;4956039;28;20189;-63
2023/11/15 04:31:05;;;;;;;0.40;0.40;;;10.60;99.90;;;;;;4963803;28;20205;-63
2023/11/15 04:33:30;;;;;;;0.30;0.30;;;10.60;99.90;;;;;;4975518;28;20181;-63
2023/11/15 04:35:56;;;;;;;0.30;0.27;;;10.60;99.90;;;;;;4956248;28;20423;-63
2023/11/15 04:38:23;;;;;;;0.30;0.30;;;10.60;99.90;;;;;;4966843;28;20185;-62
2023/11/15 04:40:48;;;;;;;0.30;0.30;;;10.60;99.90;;;;;;4962994;28;20429;-63
2023/11/15 04:43:14;;;;;;;0.30;0.30;;;10.60;99.90;;;;;;4962495;28;20221;-63
2023/11/15 04:45:39;;;;;;;0.30;0.30;;;10.60;99.90;;;;;;4959760;28;20209;-63
2023/11/15 04:48:05;;;;;;;0.30;0.20;;;10.60;99.90;;;;;;4974760;28;20712;-65
2023/11/15 04:50:31;;;;;;;0.40;0.40;;;10.60;99.90;;;;;;4961973;28;20735;-63
2023/11/15 04:52:56;;;;;;;0.30;0.30;;;10.60;99.90;;;;;;4955790;28;20177;-63
2023/11/15 04:55:22;;;;;;;0.30;0.30;;;10.60;99.90;;;;;;4938142;29;20193;-63
2023/11/15 04:57:47;;;;;;;0.53;0.53;;;10.60;99.90;;;;;;4960310;28;20269;-63
2023/11/15 05:00:13;;;;;;;0.30;0.30;;;10.70;99.90;;;;;;4963467;28;20186;-62
2023/11/15 05:02:39;;;;;;;0.30;0.30;;;10.70;99.90;;;;;;4955926;28;20177;-63
2023/11/15 05:05:05;;;;;;;0.30;0.30;;;10.70;99.90;;;;;;4955174;28;20257;-62
2023/11/15 05:07:32;;;;;;;0.30;0.30;;;10.70;99.90;;;;;;4956023;28;20193;-63
2023/11/15 05:09:58;;;;;;;0.40;0.40;;;10.70;99.90;;;;;;4966595;28;20501;-63
2023/11/15 05:12:24;;;;;;;0.30;0.30;;;10.70;99.90;;;;;;4955401;29;20783;-63
2023/11/15 05:14:49;;;;;;;0.30;0.30;;;10.70;99.90;;;;;;4959003;28;20500;-63
2023/11/15 05:17:15;;;;;;;0.30;0.30;;;10.70;99.90;;;;;;4963063;28;20181;-63
2023/11/15 05:19:41;;;;;;;0.30;0.30;;;10.70;99.90;;;;;;4955250;28;20669;-63
2023/11/15 05:22:06;;;;;;;0.30;0.30;;;10.70;99.90;;;;;;4937854;29;20214;-63
2023/11/15 05:24:32;;;;;;;0.30;0.30;;;10.70;99.90;;;;;;4954840;28;20535;-63
2023/11/15 05:26:58;;;;;;;0.30;0.30;;;10.70;99.90;;;;;;4955152;28;20204;-63
2023/11/15 05:29:25;;;;;;;0.30;0.30;;;10.60;99.90;;;;;;4954967;28;20421;-63
2023/11/15 05:31:50;;;;;;;0.30;0.30;;;10.60;99.90;;;;;;4965006;28;20663;-63
2023/11/15 05:34:16;;;;;;;0.30;0.30;;;10.50;99.90;;;;;;4965752;28;20185;-63
2023/11/15 05:36:42;;;;;;;0.33;0.33;;;10.40;99.90;;;;;;4974595;28;20204;-63
2023/11/15 05:39:09;;;;;;;0.30;0.30;;;10.40;99.90;;;;;;4956870;28;20471;-64
2023/11/15 05:41:35;;;;;;;0.30;0.30;;;10.30;99.90;;;;;;4955650;28;20187;-63
2023/11/15 05:44:00;;;;;;;0.30;0.30;;;10.30;99.90;;;;;;4954869;29;20184;-63
2023/11/15 05:46:26;;;;;;;0.30;0.30;;;10.30;99.90;;;;;;4965519;28;20291;-63
2023/11/15 05:48:52;;;;;;;0.30;0.30;;;10.20;99.90;;;;;;4970859;28;20216;-63
2023/11/15 05:51:18;;;;;;;0.30;0.30;;;10.20;99.90;;;;;;4964391;28;20195;-63
2023/11/15 05:53:45;;;;;;;0.30;0.30;;;10.10;99.90;;;;;;4955364;28;20193;-63
2023/11/15 05:56:10;;;;;;;0.30;0.30;;;10.10;99.90;;;;;;4954763;28;20193;-62
2023/11/15 05:58:36;;;;;;;0.30;0.20;;;10.10;99.90;;;;;;4964590;28;20211;-61
2023/11/15 06:01:03;;;;;;;0.30;0.30;;;10.10;99.90;;;;;;4967836;28;20188;-61
2023/11/15 06:03:28;;;;;;;0.30;0.30;;;10.10;99.90;;;;;;4962787;28;20165;-62
2023/11/15 06:05:54;;;;;;;0.30;0.20;;;10.10;99.90;;;;;;4956388;28;20256;-61
2023/11/15 06:08:20;;;;;;;0.30;0.30;;;10.10;99.90;;;;;;4964055;28;20282;-63
2023/11/15 06:10:47;;;;;;;0.30;0.30;;;10.00;99.90;;;;;;4954767;29;20219;-63
2023/11/15 06:13:15;;;;;;;0.30;0.30;;;10.00;99.90;;;;;;4953826;29;20236;-64
2023/11/15 06:15:41;;;;;;;0.30;0.30;;;10.10;99.90;;;;;;4956690;28;20200;-64
2023/11/15 06:18:07;;;;;;;0.30;0.30;;;10.10;99.90;;;;;;4954795;28;20625;-64
2023/11/15 06:20:33;;;;;;;0.30;0.28;;;10.10;99.90;;;;;;4953790;28;20224;-63
2023/11/15 06:22:58;;;;;;;0.30;0.30;;;10.10;99.90;;;;;;4956396;28;20201;-63
2023/11/15 06:25:24;;;;;;;0.30;0.30;;;10.10;99.90;;;;;;4938445;29;20193;-62
2023/11/15 06:27:50;;;;;;;0.30;0.30;;;10.10;99.90;;;;;;4955563;28;20173;-62
2023/11/15 06:30:16;;;;;;;0.30;0.30;;;10.10;99.90;;;;;;4971931;28;20201;-63
2023/11/15 06:32:43;;;;;;;0.30;0.30;;;10.10;99.90;;;;;;4977449;28;20165;-63
2023/11/15 06:35:08;;;;;;;0.30;0.30;;;10.10;99.90;;;;;;4976528;28;20205;-63
2023/11/15 06:37:34;;;;;;;0.30;0.30;;;10.10;99.90;;;;;;4976539;28;20573;-62
2023/11/15 06:40:07;;;;;;;1.23;1.17;;;10.10;99.90;;;;;;4974015;28;20183;-64
2023/11/15 06:42:34;;;;;;;0.50;0.50;;;10.10;99.90;;;;;;4967773;28;20776;-65
2023/11/15 06:45:00;;;;;;;0.30;0.30;;;10.20;99.90;;;;;;4960696;28;20215;-63
2023/11/15 06:47:28;;;;;;;0.40;0.40;;;10.20;99.90;;;;;;4975189;28;20653;-63
2023/11/15 06:49:54;;;;;;;0.30;0.30;;;10.10;99.90;;;;;;4969315;28;20201;-62
2023/11/15 06:52:20;;;;;;;0.30;0.30;;;10.10;99.90;;;;;;4957905;29;20174;-62
2023/11/15 06:54:46;;;;;;;0.30;0.30;;;10.10;99.90;;;;;;4959799;28;21044;-64
2023/11/15 06:57:12;;;;;;;0.30;0.30;;;10.00;99.90;;;;;;4961085;28;20421;-63
2023/11/15 06:59:37;;;;;;;0.30;0.30;;;10.00;99.90;;;;;;4956620;29;20679;-63
2023/11/15 07:02:03;;;;;;;0.30;0.30;;;10.00;99.90;;;;;;4959802;28;20272;-64
2023/11/15 07:04:29;;;;;;;0.40;0.40;;;10.00;99.90;;;;;;4968512;28;20531;-63
2023/11/15 07:06:55;;;;;;;0.30;0.30;;;10.00;99.90;;;;;;4957130;28;20267;-63
2023/11/15 07:09:21;;;;;;;0.30;0.30;;;10.00;99.90;;;;;;4956998;28;20193;-63
2023/11/15 07:11:47;;;;;;;0.30;0.30;;;10.00;99.90;;;;;;4956582;29;20390;-64
2023/11/15 07:14:16;;;;;;;0.30;0.20;;;9.90;99.90;;;;;;4957000;29;20177;-63
2023/11/15 07:16:55;;;;;;;0.30;0.30;;;9.90;99.90;;;;;;4957165;29;20684;-64
2023/11/15 07:19:21;;;;;;;0.30;0.30;;;9.80;99.90;;;;;;4957116;29;20232;-63
2023/11/15 07:21:46;;;;;;;0.30;0.30;;;9.80;99.90;;;;;;4957396;29;20177;-63
2023/11/15 07:24:12;;;;;;;0.30;0.30;;;9.90;99.90;;;;;;4956755;29;20515;-63
2023/11/15 07:26:38;;;;;;;0.40;0.40;;;9.90;99.90;;;;;;4957071;29;20227;-63
2023/11/15 07:29:08;;;;;;;0.30;0.30;;;9.90;99.90;;;;;;4957397;29;20198;-63
2023/11/15 07:31:34;;;;;;;0.30;0.30;;;10.00;99.90;;;;;;4957107;29;20457;-63
2023/11/15 07:34:00;;;;;;;0.30;0.30;;;10.00;99.90;;;;;;4956792;29;20166;-63
2023/11/15 07:36:29;;;;;;;0.30;0.30;;;10.10;99.90;;;;;;4956756;29;20194;-64
2023/11/15 07:38:57;;;;;;;0.30;0.30;;;10.20;99.90;;;;;;4956287;28;20192;-63
2023/11/15 07:41:25;;;;;;;0.30;0.30;;;10.20;99.90;;;;;;4956547;29;20180;-63
2023/11/15 07:43:54;;;;;;;0.53;0.53;;;10.20;99.90;;;;;;4956428;29;20222;-65
2023/11/15 07:46:22;;;;;;;0.30;0.27;;;10.30;99.90;;;;;;4956672;29;20409;-63
2023/11/15 07:48:48;;;;;;;0.40;0.40;;;10.40;99.90;;;;;;4956699;29;20389;-63
2023/11/15 07:51:14;;;;;;;0.30;0.30;;;10.50;99.90;;;;;;4956579;29;21015;-63
2023/11/15 07:53:40;;;;;;;0.30;0.30;;;10.60;99.90;;;;;;4956707;29;20439;-63
2023/11/15 07:56:06;;;;;;;0.30;0.30;;;10.70;99.90;;;;;;4956273;29;20208;-63
2023/11/15 07:58:33;;;;;;;0.30;0.30;;;10.90;99.90;;;;;;4956584;29;20266;-63
2023/11/15 08:00:59;;;;;;;0.40;0.40;;;11.10;99.90;;;;;;4956831;29;20433;-62
2023/11/15 08:03:28;;;;;;;0.30;0.30;;;11.20;99.90;;;;;;4956395;29;20405;-65
2023/11/15 08:05:55;;;;;;;0.30;0.30;;;11.30;99.90;;;;;;4956005;29;20440;-64
2023/11/15 08:08:21;;;;;;;0.30;0.30;;;11.40;99.90;;;;;;4956313;29;20997;-63
2023/11/15 08:10:48;;;;;;;0.30;0.30;;;11.50;99.90;;;;;;4956185;29;20434;-64
2023/11/15 08:13:14;;;;;;;0.30;0.30;;;11.50;99.90;;;;;;4956334;29;20911;-63
2023/11/15 08:15:42;;;;;;;0.40;0.40;;;11.50;99.90;;;;;;4955841;29;20430;-64
2023/11/15 08:18:08;;;;;;;0.30;0.20;;;11.50;99.90;;;;;;4956234;29;20484;-63
2023/11/15 08:20:35;;;;;;;0.30;0.30;;;11.50;99.90;;;;;;4956373;29;20398;-65
2023/11/15 08:23:01;;;;;;;0.30;0.30;;;11.40;99.90;;;;;;4955994;29;20905;-63
2023/11/15 08:25:27;;;;;;;0.30;0.30;;;11.60;99.90;;;;;;4955673;29;20423;-64
2023/11/15 08:27:53;;;;;;;0.30;0.30;;;12.10;99.90;;;;;;4955998;29;20423;-64
2023/11/15 08:30:19;;;;;;;0.30;0.30;;;12.50;99.90;;;;;;4955907;29;20290;-64
2023/11/15 08:32:45;;;;;;;0.30;0.30;;;12.70;99.90;;;;;;4955783;28;20180;-64
2023/11/15 08:35:11;;;;;;;0.30;0.20;;;12.80;99.90;;;;;;4955457;29;20204;-64
2023/11/15 08:37:38;;;;;;;0.30;0.30;;;12.90;99.90;;;;;;4955915;29;20503;-64
2023/11/15 08:40:05;;;;;;;0.40;0.40;;;13.40;99.90;;;;;;4956073;29;20204;-64
2023/11/15 08:42:30;;;;;;;0.30;0.27;;;13.60;99.90;;;;;;4955693;29;20387;-64
2023/11/15 08:44:56;;;;;;;0.30;0.30;;;13.70;99.90;;;;;;4955524;29;20559;-64
2023/11/15 08:47:23;;;;;;;0.30;0.20;;;13.90;99.90;;;;;;4955530;29;20542;-65
2023/11/15 08:49:53;;;;;;;0.30;0.20;;;14.10;99.90;;;;;;4955549;28;20293;-64
2023/11/15 08:52:19;;;;;;;0.30;0.20;;;14.20;99.90;;;;;;4955246;28;20473;-64
2023/11/15 08:54:48;;;;;;;0.30;0.30;;;14.00;99.90;;;;;;4954963;28;20571;-64
2023/11/15 08:57:16;;;;;;;0.30;0.20;;;13.90;99.90;;;;;;4955457;29;20424;-64
2023/11/15 08:59:43;;;;;;;0.30;0.30;;;14.00;99.90;;;;;;4955553;29;20413;-64
2023/11/15 09:02:10;;;;;;;0.30;0.20;;;14.10;99.90;;;;;;4955687;29;20423;-64
2023/11/15 09:04:38;;;;;;;0.30;0.20;;;14.20;99.90;;;;;;4954920;29;20391;-64
2023/11/15 09:07:04;;;;;;;0.30;0.20;;;14.20;99.90;;;;;;4955322;29;20454;-64
2023/11/15 09:09:35;;;;;;;0.30;0.27;;;14.00;99.90;;;;;;4937732;29;20759;-63
2023/11/15 09:12:03;;;;;;;0.30;0.30;;;13.80;99.90;;;;;;4938128;29;20420;-64
2023/11/15 09:14:29;;;;;;;0.30;0.27;;;13.60;99.90;;;;;;4954891;29;20403;-63
2023/11/15 09:16:55;;;;;;;0.30;0.30;;;13.30;99.90;;;;;;4937240;29;20407;-64
2023/11/15 09:19:20;;;;;;;0.30;0.30;;;13.20;99.90;;;;;;4954976;29;20253;-64
2023/11/15 09:21:51;;;;;;;0.30;0.30;;;13.00;99.90;;;;;;4954856;29;20727;-64
2023/11/15 09:24:18;;;;;;;0.30;0.30;;;12.90;99.90;;;;;;4954972;29;20486;-64
2023/11/15 09:26:45;;;;;;;0.30;0.20;;;12.70;99.90;;;;;;4955203;29;20530;-62
2023/11/15 09:29:11;;;;;;;0.30;0.30;;;12.70;99.90;;;;;;4955302;29;20947;-62
2023/11/15 09:31:38;;;;;;;0.30;0.30;;;12.60;99.90;;;;;;4955021;29;20451;-63
2023/11/15 09:34:03;;;;;;;0.30;0.30;;;12.50;99.90;;;;;;4954589;29;20522;-63
2023/11/15 09:36:29;;;;;;;0.30;0.30;;;12.50;99.90;;;;;;4955195;29;20407;-63
2023/11/15 09:38:56;;;;;;;0.30;0.30;;;12.50;99.90;;;;;;4955328;29;20179;-63
2023/11/15 09:41:22;;;;;;;0.30;0.30;;;12.50;99.90;;;;;;4954941;29;20722;-62
2023/11/15 09:43:55;;;;;;;1.07;0.80;;;12.60;99.90;;;;;;4953719;29;20420;-62
2023/11/15 09:46:22;;;;;;;0.30;0.30;;;12.80;99.90;;;;;;4954966;29;20448;-62
2023/11/15 09:48:51;;;;;;;0.30;0.30;;;12.90;99.90;;;;;;4938052;29;20481;-62
2023/11/15 09:51:20;;;;;;;0.30;0.30;;;13.20;99.90;;;;;;4955032;29;20467;-62
2023/11/15 09:53:51;;;;;;;0.30;0.27;;;13.60;99.90;;;;;;4954836;29;20414;-65
2023/11/15 09:56:16;;;;;;;0.30;0.20;;;13.90;99.90;;;;;;4954996;29;20440;-63
2023/11/15 09:58:42;;;;;;;0.30;0.30;;;14.00;99.90;;;;;;4954864;29;20550;-62
2023/11/15 10:01:09;;;;;;;0.30;0.30;;;14.00;99.90;;;;;;4954972;29;20265;-62
2023/11/15 10:03:41;;;;;;;0.70;0.70;;;13.90;99.90;;;;;;4939742;29;20561;-62
2023/11/15 10:06:08;;;;;;;0.30;0.30;;;13.80;99.90;;;;;;4958269;29;20625;-63
2023/11/15 10:08:35;;;;;;;0.30;0.30;;;13.60;99.90;;;;;;4958762;28;20451;-62
2023/11/15 10:11:06;;;;;;;0.30;0.30;;;13.50;99.90;;;;;;4958403;29;20507;-62
2023/11/15 10:13:32;;;;;;;0.30;0.20;;;13.40;99.90;;;;;;4958761;29;20424;-62
2023/11/15 10:15:58;;;;;;;0.30;0.30;;;13.40;99.90;;;;;;4957847;29;20483;-63
2023/11/15 10:18:34;;;;;;;0.40;0.40;;;13.30;99.90;;;;;;4964287;28;20390;-63
2023/11/15 10:21:09;;;;;;;0.83;0.40;;;13.30;99.90;;;;;;4977660;28;20183;-62
2023/11/15 10:23:34;;;;;;;0.30;0.30;;;13.30;99.90;;;;;;4977779;28;20392;-63
2023/11/15 10:26:01;;;;;;;0.30;0.30;;;13.10;99.90;;;;;;4977297;28;20432;-63
2023/11/15 10:28:36;;;;;;;0.30;0.30;;;13.20;99.90;;;;;;4977335;28;20192;-62
2023/11/15 10:31:14;;;;;;;0.30;0.30;;;13.00;99.90;;;;;;4977632;28;20467;-63
2023/11/15 10:33:45;;;;;;;0.30;0.30;;;13.00;99.90;;;;;;4977563;28;20444;-62
2023/11/15 10:36:19;;;;;;;0.30;0.30;;;13.10;99.90;;;;;;4977322;28;20442;-62
2023/11/15 10:38:46;;;;;;;0.30;0.30;;;13.10;99.90;;;;;;4977117;28;20414;-63
2023/11/15 10:41:17;;;;;;;0.30;0.30;;;13.10;99.90;;;;;;4977438;28;20453;-62
2023/11/15 10:44:03;;;;;;;0.30;0.30;;;13.10;99.90;;;;;;4977528;28;20468;-62
2023/11/15 10:46:30;;;;;;;0.30;0.20;;;13.20;99.90;;;;;;4977294;28;20766;-63
2023/11/15 10:48:57;;;;;;;0.30;0.30;;;13.30;99.90;;;;;;4977115;28;20414;-62
2023/11/15 10:51:29;;;;;;;0.30;0.30;;;13.30;99.90;;;;;;4977004;28;20467;-62
2023/11/15 10:53:56;;;;;;;0.30;0.30;;;13.30;99.90;;;;;;4976962;28;20831;-62
2023/11/15 10:56:24;;;;;;;0.60;0.60;;;13.20;99.90;;;;;;4977229;28;20491;-63
2023/11/15 10:58:52;;;;;;;0.30;0.30;;;13.20;99.90;;;;;;4976502;28;20802;-65
2023/11/15 11:01:19;;;;;;;0.30;0.20;;;13.00;99.90;;;;;;4976684;28;20911;-62
2023/11/15 11:03:55;;;;;;;0.30;0.30;;;12.90;99.90;;;;;;4976721;28;20389;-63
2023/11/15 11:06:47;;;;;;;0.30;0.30;;;13.00;99.90;;;;;;4959167;28;20503;-63
2023/11/15 11:09:25;;;;;;;0.30;0.30;;;13.10;99.90;;;;;;4976859;28;20419;-62
2023/11/15 11:12:05;;;;;;;0.30;0.30;;;13.10;99.90;;;;;;4976816;28;20546;-64
2023/11/15 11:14:32;;;;;;;0.30;0.30;;;13.20;99.90;;;;;;4976083;28;20887;-63
2023/11/15 11:16:58;;;;;;;0.50;0.50;;;13.20;99.90;;;;;;4976593;28;20757;-63
2023/11/15 11:19:28;;;;;;;0.30;0.30;;;13.30;99.90;;;;;;4976906;28;20847;-64
2023/11/15 11:22:03;;;;;;;0.30;0.30;;;13.50;99.90;;;;;;4976662;28;20379;-64
2023/11/15 11:24:31;;;;;;;0.30;0.30;;;13.60;99.90;;;;;;4976112;28;20374;-63
2023/11/15 11:27:12;;;;;;;0.40;0.40;;;13.70;99.90;;;;;;4976126;28;20458;-65
2023/11/15 11:30:05;;;;;;;0.30;0.27;;;13.70;99.90;;;;;;4976262;28;20978;-62
2023/11/15 11:32:31;;;;;;;0.30;0.30;;;13.60;99.90;;;;;;4976355;28;20407;-63
2023/11/15 11:35:07;;;;;;;0.30;0.30;;;13.50;99.90;;;;;;4975796;28;20880;-64
2023/11/15 11:37:44;;;;;;;0.30;0.30;;;13.60;99.90;;;;;;4976592;28;20214;-64
2023/11/15 11:40:14;;;;;;;0.30;0.30;;;13.60;99.90;;;;;;4959032;28;20415;-61
2023/11/15 11:42:41;;;;;;;0.30;0.30;;;13.60;99.90;;;;;;4976100;28;20911;-62
2023/11/15 11:45:08;;;;;;;0.30;0.20;;;13.70;99.90;;;;;;4958239;28;20447;-62
2023/11/15 11:47:41;;;;;;;0.30;0.30;;;13.70;99.90;;;;;;4976043;28;20437;-61
2023/11/15 11:50:07;;;;;;;0.30;0.30;;;13.70;99.90;;;;;;4975927;28;20981;-61
2023/11/15 11:52:34;;;;;;;0.30;0.30;;;13.80;99.90;;;;;;4976181;28;20870;-61
2023/11/15 11:55:01;;;;;;;0.30;0.30;;;14.00;99.90;;;;;;4975812;28;20415;-62
2023/11/15 11:57:27;;;;;;;0.30;0.30;;;14.00;99.90;;;;;;4975857;28;20398;-61
2023/11/15 12:00:15;;;;;;;0.30;0.27;;;14.10;99.90;;;;;;4975845;28;20397;-62
2023/11/15 12:02:47;;;;;;;0.40;0.40;;;14.20;99.90;;;;;;4975888;28;20670;-62
2023/11/15 12:05:15;;;;;;;0.30;0.30;;;14.30;99.90;;;;;;4975420;28;20435;-62
2023/11/15 12:07:46;;;;;;;0.30;0.30;;;14.30;99.90;;;;;;4975662;28;20436;-62
2023/11/15 12:10:13;;;;;;;0.30;0.30;;;14.20;99.90;;;;;;4975632;28;20434;-62
2023/11/15 12:12:46;;;;;;;0.30;0.30;;;14.10;99.90;;;;;;4975489;28;20914;-61
2023/11/15 12:15:15;;;;;;;0.30;0.30;;;14.00;99.90;;;;;;4975139;28;20854;-62
2023/11/15 12:17:46;;;;;;;0.30;0.30;;;13.90;99.90;;;;;;4975416;28;20820;-62
2023/11/15 12:20:38;;;;;;;0.37;0.37;;;13.90;99.90;;;;;;4975436;28;20427;-61
2023/11/15 12:23:10;;;;;;;0.30;0.30;;;13.70;99.90;;;;;;4975443;28;20411;-62
2023/11/15 12:25:47;;;;;;;0.30;0.30;;;13.80;99.90;;;;;;4974525;28;20443;-62
2023/11/15 12:28:22;;;;;;;0.40;0.40;;;13.70;99.90;;;;;;4975338;28;20385;-62
2023/11/15 12:30:50;;;;;;;0.30;0.30;;;13.70;99.90;;;;;;4974519;28;20553;-62
2023/11/15 12:33:16;;;;;;;0.30;0.30;;;13.60;99.90;;;;;;4955551;29;20412;-62
2023/11/15 12:35:43;;;;;;;0.30;0.30;;;13.60;99.90;;;;;;4955092;28;20766;-60
2023/11/15 12:38:12;;;;;;;0.30;0.30;;;13.60;99.90;;;;;;4955248;29;20920;-62
2023/11/15 12:40:39;;;;;;;0.30;0.30;;;13.70;99.90;;;;;;4955293;28;20442;-63
2023/11/15 12:43:28;;;;;;;0.30;0.30;;;13.70;99.90;;;;;;4955275;29;20450;-62
2023/11/15 12:46:01;;;;;;;0.33;0.33;;;13.70;99.90;;;;;;4954361;28;20411;-62
2023/11/15 12:48:26;;;;;;;0.30;0.30;;;13.80;99.90;;;;;;4955846;29;20559;-61
2023/11/15 12:50:59;;;;;;;0.30;0.30;;;14.00;99.90;;;;;;4955579;29;20551;-61
2023/11/15 12:53:29;;;;;;;0.30;0.20;;;14.00;99.90;;;;;;4938450;29;20173;-62
2023/11/15 12:55:55;;;;;;;0.30;0.30;;;14.10;99.90;;;;;;4938052;29;20440;-62
2023/11/15 12:58:32;;;;;;;0.33;0.33;;;14.20;99.90;;;;;;4955635;29;20970;-63
2023/11/15 13:01:12;;;;;;;0.30;0.30;;;14.20;99.90;;;;;;4955456;29;20172;-62
2023/11/15 13:03:39;;;;;;;0.30;0.30;;;14.20;99.90;;;;;;4955433;29;20416;-63
2023/11/15 13:06:10;;;;;;;0.30;0.30;;;14.20;99.90;;;;;;4955171;28;20899;-64
2023/11/15 13:08:36;;;;;;;0.30;0.30;;;14.20;99.90;;;;;;4955538;29;20420;-63
2023/11/15 13:11:04;;;;;;;0.30;0.20;;;14.10;99.90;;;;;;4955164;28;20463;-64
2023/11/15 13:13:31;;;;;;;0.30;0.30;;;14.00;99.90;;;;;;4954655;29;20523;-62
2023/11/15 13:15:58;;;;;;;0.30;0.30;;;13.90;99.90;;;;;;4954968;28;20811;-64
2023/11/15 13:18:23;;;;;;;0.30;0.20;;;13.80;99.90;;;;;;4955633;28;20729;-62
2023/11/15 13:20:51;;;;;;;0.30;0.30;;;13.80;99.90;;;;;;4955756;29;20383;-62
2023/11/15 13:23:19;;;;;;;0.30;0.20;;;13.70;99.90;;;;;;4955480;29;20256;-62
2023/11/15 13:25:45;;;;;;;0.30;0.30;;;13.60;99.90;;;;;;4937848;29;20440;-63
2023/11/15 13:28:11;;;;;;;0.37;0.37;;;13.50;99.90;;;;;;4938028;29;20402;-62
2023/11/15 13:30:38;;;;;;;0.30;0.30;;;13.50;99.90;;;;;;4955408;29;20564;-62
2023/11/15 13:33:03;;;;;;;0.30;0.30;;;13.40;99.90;;;;;;4938161;29;20179;-62
2023/11/15 13:35:29;;;;;;;0.30;0.30;;;13.40;99.90;;;;;;4955012;28;20983;-63
2023/11/15 13:37:58;;;;;;;0.30;0.20;;;13.50;99.90;;;;;;4954512;29;20641;-63
2023/11/15 13:40:24;;;;;;;0.33;0.33;;;13.40;99.90;;;;;;4955142;28;20204;-63
2023/11/15 13:42:51;;;;;;;0.40;0.40;;;13.30;99.90;;;;;;4955175;29;20405;-62
2023/11/15 13:45:17;;;;;;;0.30;0.30;;;13.30;99.90;;;;;;4954944;28;20487;-62
2023/11/15 13:47:48;;;;;;;0.30;0.20;;;13.20;99.90;;;;;;4955211;29;20430;-62
2023/11/15 13:50:14;;;;;;;0.30;0.30;;;13.20;99.90;;;;;;4938023;29;20514;-62
2023/11/15 13:52:40;;;;;;;0.30;0.30;;;13.10;99.90;;;;;;4955207;29;20931;-63
2023/11/15 13:55:08;;;;;;;0.30;0.30;;;13.10;99.90;;;;;;4954733;28;20463;-63
2023/11/15 13:57:33;;;;;;;0.33;0.33;;;13.20;99.90;;;;;;4955040;29;20169;-63
2023/11/15 13:59:59;;;;;;;0.30;0.30;;;13.20;99.90;;;;;;4955089;29;20419;-62
2023/11/15 14:02:26;;;;;;;0.30;0.20;;;13.20;99.90;;;;;;4955123;29;20175;-62
2023/11/15 14:04:53;;;;;;;0.30;0.20;;;13.20;99.90;;;;;;4954709;28;20545;-63
2023/11/15 14:07:19;;;;;;;0.30;0.20;;;13.20;99.90;;;;;;4954801;29;20437;-63
2023/11/15 14:09:45;;;;;;;0.30;0.30;;;13.20;99.90;;;;;;4954893;29;20728;-62
2023/11/15 14:12:11;;;;;;;0.30;0.30;;;13.30;99.90;;;;;;4954933;29;20408;-63
2023/11/15 14:14:39;;;;;;;0.30;0.30;;;13.30;99.90;;;;;;4954640;29;20418;-62
2023/11/15 14:17:09;;;;;;;0.30;0.30;;;13.30;99.90;;;;;;4937826;29;20169;-63
2023/11/15 14:19:41;;;;;;;0.30;0.30;;;13.30;99.90;;;;;;4955013;28;20420;-63
2023/11/15 14:22:07;;;;;;;0.30;0.30;;;13.20;99.90;;;;;;4954923;29;20423;-63
2023/11/15 14:24:34;;;;;;;0.30;0.30;;;13.10;99.90;;;;;;4954974;29;20408;-62
2023/11/15 14:27:00;;;;;;;0.30;0.30;;;13.00;99.90;;;;;;4954862;28;20518;-62
2023/11/15 14:29:27;;;;;;;0.40;0.40;;;13.00;99.90;;;;;;4954852;29;20457;-62
2023/11/15 14:31:52;;;;;;;0.33;0.33;;;12.90;99.90;;;;;;4954750;29;20455;-62
2023/11/15 14:34:19;;;;;;;0.30;0.20;;;12.80;99.90;;;;;;4954040;29;20462;-63
2023/11/15 14:36:45;;;;;;;0.30;0.30;;;12.80;99.90;;;;;;4954100;28;20184;-62
2023/11/15 14:39:12;;;;;;;0.30;0.20;;;12.70;99.90;;;;;;4954288;29;20743;-63
2023/11/15 14:41:41;;;;;;;0.30;0.30;;;12.70;99.90;;;;;;4954024;29;20401;-63
2023/11/15 14:44:07;;;;;;;0.40;0.40;;;12.50;99.90;;;;;;4954334;29;20394;-63
2023/11/15 14:46:33;;;;;;;0.30;0.30;;;12.40;99.90;;;;;;4937156;29;20433;-62
2023/11/15 14:48:59;;;;;;;0.30;0.30;;;12.30;99.90;;;;;;4955768;28;20428;-63
2023/11/15 14:51:26;;;;;;;0.33;0.33;;;12.20;99.90;;;;;;4958032;29;20214;-62
2023/11/15 14:53:52;;;;;;;0.40;0.40;;;12.10;99.90;;;;;;4940529;29;20816;-63
2023/11/15 14:56:19;;;;;;;0.30;0.30;;;12.10;99.90;;;;;;4956397;28;20441;-63
2023/11/15 14:58:45;;;;;;;0.33;0.33;;;12.00;99.90;;;;;;4955661;29;20403;-63
2023/11/15 15:01:13;;;;;;;0.30;0.30;;;12.00;99.90;;;;;;4955741;29;20864;-62
2023/11/15 15:03:39;;;;;;;0.30;0.30;;;11.90;99.90;;;;;;4955717;29;20440;-63
2023/11/15 15:06:05;;;;;;;0.30;0.30;;;11.80;99.90;;;;;;4955204;28;20533;-64
2023/11/15 15:08:31;;;;;;;0.30;0.30;;;11.70;99.90;;;;;;4955747;29;20565;-63
2023/11/15 15:10:58;;;;;;;0.30;0.30;;;11.60;99.90;;;;;;4956400;29;20705;-63
2023/11/15 15:13:24;;;;;;;0.30;0.30;;;11.60;99.90;;;;;;4957617;29;20464;-62
2023/11/15 15:15:50;;;;;;;0.37;0.37;;;11.50;99.90;;;;;;4957137;28;20493;-62
2023/11/15 15:18:16;;;;;;;0.30;0.30;;;11.50;99.90;;;;;;4957534;29;20380;-62
2023/11/15 15:20:41;;;;;;;0.30;0.30;;;11.50;99.90;;;;;;4957528;29;20815;-62
2023/11/15 15:23:08;;;;;;;0.30;0.30;;;11.50;99.90;;;;;;4957762;29;20435;-62
2023/11/15 15:25:37;;;;;;;0.40;0.40;;;11.50;99.90;;;;;;4957083;28;20193;-62
2023/11/15 15:28:03;;;;;;;0.30;0.30;;;11.60;99.90;;;;;;4957236;29;20841;-62
2023/11/15 15:30:32;;;;;;;0.30;0.30;;;11.60;99.90;;;;;;4957166;29;20446;-62
2023/11/15 15:33:01;;;;;;;0.30;0.30;;;11.60;99.90;;;;;;4957657;29;20444;-63
2023/11/15 15:35:31;;;;;;;0.30;0.30;;;11.60;99.90;;;;;;4956825;28;20509;-62
2023/11/15 15:37:57;;;;;;;0.30;0.30;;;11.60;99.90;;;;;;4957102;29;20403;-62
2023/11/15 15:40:26;;;;;;;0.30;0.30;;;11.60;99.90;;;;;;4957354;29;20411;-62
2023/11/15 15:42:56;;;;;;;0.30;0.20;;;11.70;99.90;;;;;;4957205;29;20418;-63
2023/11/15 15:45:24;;;;;;;0.30;0.20;;;11.70;99.90;;;;;;4956697;28;20534;-62
2023/11/15 15:47:50;;;;;;;0.40;0.40;;;11.70;99.90;;;;;;4957074;29;20417;-62
2023/11/15 15:50:16;;;;;;;0.30;0.30;;;11.70;99.90;;;;;;4957031;29;20467;-62
2023/11/15 15:52:43;;;;;;;0.30;0.30;;;11.60;99.90;;;;;;4939750;29;20476;-62
2023/11/15 15:55:10;;;;;;;0.40;0.40;;;11.60;99.90;;;;;;4956628;28;20199;-63
2023/11/15 15:57:36;;;;;;;0.30;0.27;;;11.60;99.90;;;;;;4939702;29;20839;-62
2023/11/15 16:00:04;;;;;;;0.30;0.30;;;11.60;99.90;;;;;;4956365;28;20768;-62
2023/11/15 16:02:34;;;;;;;0.30;0.30;;;11.60;99.90;;;;;;4956620;29;20915;-62
2023/11/15 16:05:02;;;;;;;0.30;0.20;;;11.50;99.90;;;;;;4956449;28;20180;-62
2023/11/15 16:07:28;;;;;;;0.30;0.30;;;11.60;99.90;;;;;;4956415;29;20434;-63
2023/11/15 16:09:54;;;;;;;0.30;0.20;;;11.60;99.90;;;;;;4956677;29;20543;-62
2023/11/15 16:12:19;;;;;;;0.30;0.30;;;11.50;99.90;;;;;;4939363;29;20177;-63
2023/11/15 16:14:47;;;;;;;0.40;0.40;;;11.50;99.90;;;;;;4956040;28;20170;-62
2023/11/15 16:17:13;;;;;;;0.47;0.47;;;11.50;99.90;;;;;;4956571;29;20257;-62
2023/11/15 16:19:38;;;;;;;0.40;0.40;;;11.50;99.90;;;;;;4956147;29;20443;-62
2023/11/15 16:22:04;;;;;;;0.30;0.30;;;11.50;99.90;;;;;;4938705;29;20201;-62
2023/11/15 16:24:29;;;;;;;0.70;0.60;;;11.50;99.90;;;;;;4956073;29;20163;-62
2023/11/15 16:26:55;;;;;;;0.30;0.20;;;11.50;99.90;;;;;;4956201;28;20202;-62
2023/11/15 16:29:22;;;;;;;0.30;0.30;;;11.50;99.90;;;;;;4956214;29;20278;-62
2023/11/15 16:31:48;;;;;;;0.30;0.30;;;11.50;99.90;;;;;;4955971;29;20197;-62
2023/11/15 16:34:13;;;;;;;0.30;0.20;;;11.40;99.90;;;;;;4956099;29;20631;-65
2023/11/15 16:36:42;;;;;;;0.33;0.33;;;11.40;99.90;;;;;;4956114;28;20191;-62
2023/11/15 16:39:10;;;;;;;0.30;0.30;;;11.30;99.90;;;;;;4955971;29;20165;-64
2023/11/15 16:41:49;;;;;;;0.30;0.30;;;11.30;99.90;;;;;;4955825;29;20449;-66
2023/11/15 16:44:19;;;;;;;0.30;0.30;;;11.20;99.90;;;;;;4955578;29;20943;-63
2023/11/15 16:46:51;;;;;;;0.40;0.40;;;11.20;99.90;;;;;;4956060;28;20211;-62
2023/11/15 16:49:17;;;;;;;0.30;0.30;;;11.20;99.90;;;;;;4956038;28;20392;-63
2023/11/15 16:51:46;;;;;;;0.30;0.30;;;11.10;99.90;;;;;;4955293;29;20439;-63
2023/11/15 16:54:15;;;;;;;0.30;0.30;;;11.00;99.90;;;;;;4953385;29;20429;-63
2023/11/15 16:56:44;;;;;;;1.63;1.38;;;11.00;99.90;;;;;;4953580;28;20263;-62